Time;durP1;ratioP1;P1;durP2;ratioP2;P2;SDS_P1;SDS_P2;PMS_P1;PMS_P2;Temp;Humidity;BMP_temperature;BMP_pressure;BME280_temperature;BME280_humidity;BME280_pressure;Samples;Min_cycle;Max_cycle;Signal;HPM_P1;HPM_P2
2021/03/18 00:00:53;;;;;;;18.95;11.60;;;3.40;77.60;;;2.29;62.93;95148.34;5011788;28;20201;-83
2021/03/18 00:03:35;;;;;;;19.05;11.63;;;3.40;77.60;;;2.27;62.81;95148.50;5006518;28;20303;-83
2021/03/18 00:06:04;;;;;;;18.45;11.73;;;3.30;77.50;;;2.24;62.81;95154.75;5043412;28;20294;-82
2021/03/18 00:08:32;;;;;;;21.23;12.23;;;3.30;77.50;;;2.22;62.91;95148.06;5055750;28;20620;-81
2021/03/18 00:11:01;;;;;;;17.85;11.00;;;3.30;77.50;;;2.21;62.96;95146.41;5057276;28;20215;-82
2021/03/18 00:13:30;;;;;;;20.95;12.35;;;3.30;77.60;;;2.19;63.14;95150.94;5021485;28;20219;-82
2021/03/18 00:15:58;;;;;;;21.33;12.57;;;3.30;77.50;;;2.11;63.00;95136.06;5000542;28;20227;-82
2021/03/18 00:18:42;;;;;;;21.00;12.77;;;3.20;77.50;;;2.15;62.96;95147.78;5008705;28;20184;-81
2021/03/18 00:21:09;;;;;;;21.95;12.10;;;3.30;78.50;;;2.18;63.28;95154.47;5040520;28;20255;-82
2021/03/18 00:23:36;;;;;;;23.33;12.77;;;3.20;77.60;;;2.18;63.12;95154.47;5048824;28;20307;-82
2021/03/18 00:26:03;;;;;;;20.27;12.75;;;3.20;77.60;;;2.17;63.30;95155.41;5046889;28;20228;-82
2021/03/18 00:28:33;;;;;;;21.88;12.65;;;3.20;77.70;;;2.15;62.99;95140.03;5039132;28;20216;-81
2021/03/18 00:31:00;;;;;;;19.35;12.48;;;3.20;77.70;;;2.15;63.19;95147.78;5032358;28;20219;-83
2021/03/18 00:33:28;;;;;;;22.17;12.57;;;3.20;77.70;;;2.20;63.29;95148.22;5048617;28;20227;-82
2021/03/18 00:35:56;;;;;;;21.77;13.15;;;3.20;77.70;;;2.19;63.49;95145.75;5048444;28;20542;-83
2021/03/18 00:38:24;;;;;;;20.42;12.77;;;3.20;77.80;;;2.20;63.14;95144.81;5048977;28;20382;-82
2021/03/18 00:41:00;;;;;;;22.88;13.45;;;3.20;77.70;;;2.16;63.04;95141.69;5047955;28;20216;-83
2021/03/18 00:43:28;;;;;;;21.98;12.57;;;3.20;77.70;;;2.20;62.98;95148.22;5049081;28;20191;-82
2021/03/18 00:45:55;;;;;;;22.58;12.90;;;3.30;77.80;;;2.21;63.06;95146.41;5016623;28;20228;-83
2021/03/18 00:48:24;;;;;;;22.52;14.02;;;3.20;77.70;;;2.20;63.04;95143.03;5049577;28;20200;-83
2021/03/18 00:51:06;;;;;;;21.10;13.15;;;3.20;77.60;;;2.12;63.07;95124.75;5051370;28;20265;-83
2021/03/18 00:53:41;;;;;;;26.20;15.05;;;3.20;77.70;;;2.16;62.99;95140.84;5051348;28;20208;-83
2021/03/18 00:56:16;;;;;;;26.42;15.52;;;3.30;77.70;;;2.14;63.42;95140.19;5051169;28;20258;-83
2021/03/18 00:58:48;;;;;;;26.60;15.15;;;3.20;77.80;;;2.11;63.44;95133.47;5051875;28;20200;-82
2021/03/18 01:01:23;;;;;;;27.00;15.77;;;3.20;77.70;;;2.11;63.19;95130.06;5035270;28;20231;-83
2021/03/18 01:03:51;;;;;;;23.88;14.93;;;3.20;77.80;;;2.09;63.58;95119.88;5050792;28;20224;-82
2021/03/18 01:06:30;;;;;;;29.00;17.08;;;3.20;77.80;;;2.07;63.48;95132.91;5051264;28;20306;-82
2021/03/18 01:09:01;;;;;;;28.00;17.02;;;3.20;77.80;;;2.04;63.71;95127.22;5034732;28;20208;-82
2021/03/18 01:11:33;;;;;;;27.83;18.05;;;3.20;77.90;;;2.05;63.52;95124.50;5053395;28;20212;-82
2021/03/18 01:14:11;;;;;;;31.27;17.90;;;3.10;77.90;;;2.06;63.54;95133.91;5054648;28;20226;-82
2021/03/18 01:16:42;;;;;;;31.98;17.55;;;3.20;78.00;;;2.06;63.76;95130.47;5054334;28;20223;-82
2021/03/18 01:19:10;;;;;;;30.05;17.85;;;3.20;77.90;;;2.05;63.63;95128.84;5054555;28;20196;-82
2021/03/18 01:21:40;;;;;;;25.38;16.08;;;3.10;77.90;;;2.06;63.60;95125.31;5054240;28;20274;-82
2021/03/18 01:24:08;;;;;;;29.67;17.13;;;3.10;77.90;;;2.08;63.31;95123.41;5071014;28;20235;-82
2021/03/18 01:26:35;;;;;;;29.02;17.23;;;3.10;77.90;;;2.02;63.54;95108.41;5054268;28;20251;-82
2021/03/18 01:29:04;;;;;;;30.02;17.92;;;3.10;77.90;;;2.07;63.40;95114.00;5054495;28;20192;-82
2021/03/18 01:31:32;;;;;;;32.83;18.95;;;3.10;78.00;;;2.07;63.29;95122.56;5054451;28;20564;-82
2021/03/18 01:33:59;;;;;;;30.35;17.38;;;3.10;77.90;;;2.05;63.28;95121.06;5054330;28;20206;-82
2021/03/18 01:36:26;;;;;;;29.58;18.20;;;3.20;78.10;;;2.05;63.67;95119.31;5037711;28;20212;-83
2021/03/18 01:38:53;;;;;;;30.48;17.92;;;3.10;78.00;;;2.05;63.41;95123.66;5021052;28;20199;-82
2021/03/18 01:41:23;;;;;;;30.90;17.80;;;3.10;78.00;;;2.04;63.57;95122.84;5053889;28;20223;-82
2021/03/18 01:43:50;;;;;;;29.45;18.45;;;3.10;78.10;;;1.97;63.70;95110.59;5054346;28;20226;-83
2021/03/18 01:46:18;;;;;;;29.48;18.52;;;3.10;78.00;;;2.03;63.39;95120.41;5053674;28;20637;-83
2021/03/18 01:48:45;;;;;;;29.67;17.90;;;3.10;78.00;;;1.99;63.85;95113.84;5053868;28;20650;-83
2021/03/18 01:51:16;;;;;;;28.50;16.65;;;3.10;78.00;;;2.02;63.65;95116.19;5070700;28;20208;-83
2021/03/18 01:53:43;;;;;;;29.65;17.52;;;3.10;78.00;;;2.03;63.45;95126.38;5054051;28;20208;-83
2021/03/18 01:56:10;;;;;;;31.52;18.73;;;3.10;77.90;;;2.03;63.52;95123.00;5037213;28;20240;-82
2021/03/18 01:58:37;;;;;;;30.58;18.15;;;3.10;77.90;;;2.02;63.24;95119.56;5037255;28;20203;-83
2021/03/18 02:01:08;;;;;;;28.92;17.73;;;3.10;77.90;;;2.02;63.30;95119.56;5070521;28;20248;-82
2021/03/18 02:03:36;;;;;;;28.98;17.88;;;3.10;78.00;;;2.02;63.49;95122.16;5053320;28;20212;-82
2021/03/18 02:06:05;;;;;;;29.92;18.58;;;3.10;77.90;;;2.01;63.21;95117.94;5037058;28;20239;-83
2021/03/18 02:08:32;;;;;;;30.63;17.75;;;3.10;77.90;;;1.99;63.45;95119.84;5053355;28;20204;-83
2021/03/18 02:10:59;;;;;;;33.83;19.30;;;3.00;77.80;;;1.98;63.60;95115.63;5020480;28;20215;-83
2021/03/18 02:13:26;;;;;;;28.88;17.98;;;3.00;77.80;;;1.99;63.23;95113.84;5053776;28;20275;-83
2021/03/18 02:15:58;;;;;;;29.90;18.08;;;3.00;77.80;;;1.95;63.36;95109.91;5054785;28;20580;-83
2021/03/18 02:18:55;;;;;;;29.10;17.88;;;3.00;77.80;;;1.91;63.12;95111.94;5053606;28;20192;-83
2021/03/18 02:21:37;;;;;;;31.33;19.08;;;3.00;77.80;;;1.91;63.41;95112.75;5053572;28;20267;-83
2021/03/18 02:24:46;;;;;;;29.70;17.42;;;3.00;77.80;;;1.87;62.98;95108.81;5054828;28;20224;-83
2021/03/18 02:28:07;;;;;;;29.95;17.88;;;3.00;77.70;;;1.86;62.97;95119.28;5053481;28;20208;-83
2021/03/18 02:30:36;;;;;;;29.40;18.58;;;3.00;77.70;;;1.84;63.43;95116.81;5046486;28;20258;-82
2021/03/18 02:33:48;;;;;;;28.40;17.33;;;3.00;77.70;;;1.82;63.21;95110.13;5053980;28;20203;-83
2021/03/18 02:36:20;;;;;;;30.73;18.35;;;3.00;77.70;;;1.82;63.34;95110.97;5036990;28;20223;-83
2021/03/18 02:39:05;;;;;;;26.60;15.88;;;2.90;77.70;;;1.75;62.95;95102.09;5052891;28;20724;-83
2021/03/18 02:41:38;;;;;;;28.00;17.00;;;2.90;77.70;;;1.82;63.30;95116.16;5053315;28;20227;-83
2021/03/18 02:44:27;;;;;;;31.00;18.08;;;2.90;77.60;;;1.81;63.27;95122.25;5052981;28;20219;-83
2021/03/18 02:47:02;;;;;;;32.00;17.65;;;2.90;77.60;;;1.80;63.36;95117.22;5052781;28;20243;-82
2021/03/18 02:49:33;;;;;;;28.60;17.02;;;2.90;77.70;;;1.79;63.39;95110.41;5052692;28;20194;-83
2021/03/18 02:52:03;;;;;;;28.02;16.83;;;2.90;77.70;;;1.78;63.39;95117.34;5036090;28;20216;-83
2021/03/18 02:54:31;;;;;;;28.80;17.75;;;2.90;77.70;;;1.74;63.16;95101.28;5069281;28;20200;-82
2021/03/18 02:57:02;;;;;;;27.15;16.85;;;2.90;77.60;;;1.78;62.94;95108.78;5035781;28;20224;-82
2021/03/18 02:59:38;;;;;;;29.85;17.38;;;2.90;77.60;;;1.79;63.10;95115.59;5052965;28;20184;-82
2021/03/18 03:02:11;;;;;;;31.88;18.13;;;2.90;77.60;;;1.79;63.06;95123.34;5035729;28;20222;-83
2021/03/18 03:04:40;;;;;;;30.13;17.45;;;2.90;77.60;;;1.65;63.28;95117.59;5052761;28;20210;-82
2021/03/18 03:07:09;;;;;;;27.45;16.35;;;2.90;77.60;;;1.72;63.51;95120.47;5035686;28;20222;-82
2021/03/18 03:09:37;;;;;;;29.55;18.08;;;2.80;77.70;;;1.69;63.25;95120.75;5052446;28;20622;-82
2021/03/18 03:12:06;;;;;;;28.40;17.73;;;2.80;77.70;;;1.69;63.30;95129.31;5035641;28;20216;-82
2021/03/18 03:14:34;;;;;;;28.05;17.13;;;2.80;77.70;;;1.68;63.52;95119.91;5052414;28;20192;-82
2021/03/18 03:17:02;;;;;;;28.73;17.70;;;2.80;77.70;;;1.64;63.29;95115.97;5051982;28;20208;-83
2021/03/18 03:19:29;;;;;;;31.77;18.08;;;2.80;77.80;;;1.67;63.46;95120.03;5052345;28;20279;-82
2021/03/18 03:21:57;;;;;;;28.92;17.50;;;2.80;77.70;;;1.66;63.28;95116.66;5037572;28;20232;-82
2021/03/18 03:24:26;;;;;;;29.58;17.48;;;2.80;77.80;;;1.64;63.55;95130.66;4999636;28;20232;-82
2021/03/18 03:26:55;;;;;;;30.83;17.38;;;2.70;77.70;;;1.63;63.48;95126.44;5015804;28;20235;-82
2021/03/18 03:29:22;;;;;;;28.48;17.45;;;2.70;77.70;;;1.58;63.50;95125.03;5048893;28;20275;-82
2021/03/18 03:31:49;;;;;;;28.80;18.85;;;2.70;77.80;;;1.60;63.61;95130.09;5014962;28;20343;-82
2021/03/18 03:34:17;;;;;;;27.58;17.38;;;2.70;78.60;;;1.60;63.39;95124.94;5031508;28;20330;-83
2021/03/18 03:36:46;;;;;;;29.63;17.52;;;2.70;77.80;;;1.61;63.38;95126.53;5033774;28;20220;-82
2021/03/18 03:39:13;;;;;;;28.48;16.50;;;2.70;77.80;;;1.61;63.46;95121.38;5016021;28;20204;-81
2021/03/18 03:41:40;;;;;;;26.95;17.25;;;2.70;77.80;;;1.56;63.41;95123.53;5021291;28;20434;-82
2021/03/18 03:44:08;;;;;;;26.48;17.63;;;2.70;77.80;;;1.54;63.49;95123.69;5022979;28;20215;-82
2021/03/18 03:46:36;;;;;;;27.13;16.77;;;2.70;77.80;;;1.50;63.40;95117.16;5022251;28;20212;-82
2021/03/18 03:49:05;;;;;;;27.25;16.15;;;2.60;77.70;;;1.47;63.57;95114.81;5039549;28;20223;-82
2021/03/18 03:52:04;;;;;;;27.58;16.63;;;2.60;77.70;;;1.46;63.15;95115.75;5022737;28;20218;-82
2021/03/18 03:54:32;;;;;;;25.77;15.52;;;2.60;77.80;;;1.48;63.64;95121.63;5030234;28;20192;-82
2021/03/18 03:57:08;;;;;;;25.52;16.20;;;2.60;77.80;;;1.49;63.41;95115.50;5015118;28;20213;-83
2021/03/18 03:59:39;;;;;;;26.88;16.08;;;2.60;77.80;;;1.49;63.60;95115.50;5031112;28;20188;-82
2021/03/18 04:02:08;;;;;;;25.05;15.10;;;2.60;77.80;;;1.50;63.44;95113.72;5014642;28;20217;-82
2021/03/18 04:04:56;;;;;;;25.20;15.80;;;2.60;77.80;;;1.52;63.35;95115.22;5013719;28;20291;-82
2021/03/18 04:07:33;;;;;;;24.48;15.07;;;2.60;77.80;;;1.53;63.25;95114.28;5030134;28;20228;-82
2021/03/18 04:10:03;;;;;;;24.38;15.23;;;2.60;77.80;;;1.52;63.66;95104.88;5013875;28;20208;-83
2021/03/18 04:12:37;;;;;;;25.83;15.73;;;2.60;77.80;;;1.47;63.40;95101.88;5014574;28;20682;-83
2021/03/18 04:15:08;;;;;;;29.13;16.90;;;2.60;77.80;;;1.52;63.45;95114.44;5034952;28;20459;-81
2021/03/18 04:17:43;;;;;;;27.90;16.02;;;2.60;77.80;;;1.50;63.60;95119.72;5020937;28;20234;-82
2021/03/18 04:20:14;;;;;;;28.27;16.30;;;2.60;77.80;;;1.49;63.33;95118.09;5036419;28;20223;-82
2021/03/18 04:22:44;;;;;;;26.33;16.05;;;2.60;77.90;;;1.50;63.56;95119.72;5041455;28;20242;-82
2021/03/18 04:25:12;;;;;;;24.40;15.85;;;2.60;77.80;;;1.52;63.47;95125.56;5022018;28;20235;-81
2021/03/18 04:27:40;;;;;;;23.73;15.18;;;2.60;77.80;;;1.54;63.82;95122.88;5038937;28;20266;-81
2021/03/18 04:30:11;;;;;;;27.27;16.17;;;2.60;77.80;;;1.55;63.49;95120.16;5024495;28;20223;-82
2021/03/18 04:32:41;;;;;;;26.30;16.55;;;2.60;77.80;;;1.49;63.67;95123.25;5025041;28;20219;-82
2021/03/18 04:35:10;;;;;;;27.80;15.55;;;2.60;77.80;;;1.52;63.51;95122.19;5028597;28;20192;-82
2021/03/18 04:37:38;;;;;;;26.02;16.80;;;2.60;77.90;;;1.49;63.17;95114.69;5042776;28;20223;-82
2021/03/18 04:40:08;;;;;;;25.73;16.35;;;2.60;77.90;;;1.54;63.78;95131.44;5035082;28;20243;-83
2021/03/18 04:42:36;;;;;;;27.20;17.50;;;2.60;78.00;;;1.52;63.96;95122.19;5029254;28;20355;-81
2021/03/18 04:45:06;;;;;;;26.30;17.45;;;2.60;78.10;;;1.49;63.99;95120.69;5039496;28;20651;-82
2021/03/18 04:47:35;;;;;;;28.27;18.67;;;2.60;78.20;;;1.53;63.98;95124.63;5024249;28;20593;-83
2021/03/18 04:50:05;;;;;;;28.55;17.50;;;2.60;78.20;;;1.54;63.89;95125.47;5043002;28;20196;-82
2021/03/18 04:52:32;;;;;;;23.90;16.05;;;2.60;78.10;;;1.57;63.58;95122.59;5046961;28;20250;-83
2021/03/18 04:55:00;;;;;;;27.73;17.38;;;2.60;78.20;;;1.57;63.90;95115.66;5037996;28;20199;-83
2021/03/18 04:57:28;;;;;;;27.13;16.73;;;2.60;78.20;;;1.59;63.62;95124.09;5058334;28;20224;-81
2021/03/18 04:59:59;;;;;;;25.92;16.75;;;2.60;78.10;;;1.57;64.10;95125.19;5053902;28;20203;-83
2021/03/18 05:02:27;;;;;;;28.92;17.80;;;2.60;78.10;;;1.55;64.53;95125.31;5051862;28;20239;-82
2021/03/18 05:05:20;;;;;;;27.00;17.90;;;2.60;78.20;;;1.54;64.15;95126.28;5054437;28;20234;-82
2021/03/18 05:07:50;;;;;;;27.38;17.40;;;2.60;78.30;;;1.50;64.21;95111.16;5036460;28;20219;-82
2021/03/18 05:10:24;;;;;;;26.10;17.10;;;2.60;78.30;;;1.53;64.12;95119.47;5069292;28;20219;-82
2021/03/18 05:12:54;;;;;;;28.58;17.65;;;2.60;78.30;;;1.53;64.29;95127.22;5035965;28;20316;-82
2021/03/18 05:15:22;;;;;;;28.23;18.08;;;2.60;78.40;;;1.52;64.45;95119.59;5054167;28;20181;-83
2021/03/18 05:17:50;;;;;;;28.38;18.08;;;2.70;78.40;;;1.54;64.49;95125.47;5030688;28;20212;-82
2021/03/18 05:20:22;;;;;;;28.65;17.80;;;2.60;78.40;;;1.51;64.15;95115.38;5047285;28;20200;-82
2021/03/18 05:22:50;;;;;;;28.92;17.58;;;2.60;78.40;;;1.57;64.06;95118.22;5032598;28;20205;-82
2021/03/18 05:25:22;;;;;;;29.42;17.95;;;2.60;78.50;;;1.59;64.13;95118.13;5032386;28;20307;-82
2021/03/18 05:27:50;;;;;;;27.80;17.42;;;2.60;78.40;;;1.57;64.16;95113.06;5032579;28;20208;-82
2021/03/18 05:30:17;;;;;;;28.73;17.13;;;2.60;78.50;;;1.62;64.07;95109.28;5033717;28;20220;-83
2021/03/18 05:32:44;;;;;;;29.48;17.80;;;2.60;78.40;;;1.61;64.14;95118.78;5017730;28;20258;-82
2021/03/18 05:35:29;;;;;;;26.10;17.15;;;2.70;78.50;;;1.60;64.20;95117.19;5018758;28;20548;-82
2021/03/18 05:37:56;;;;;;;27.38;17.52;;;2.70;78.50;;;1.62;64.41;95127.38;5001116;28;20216;-81
2021/03/18 05:40:23;;;;;;;27.10;16.52;;;2.70;78.60;;;1.67;63.94;95122.63;5001538;28;20205;-83
2021/03/18 05:42:51;;;;;;;27.52;17.70;;;2.70;78.50;;;1.66;64.32;95124.41;5017557;28;20730;-82
2021/03/18 05:45:19;;;;;;;26.92;17.88;;;2.70;78.60;;;1.67;64.42;95130.38;5017355;28;20224;-82
2021/03/18 05:47:46;;;;;;;30.88;17.98;;;2.70;78.60;;;1.68;64.42;95132.03;5016962;28;20598;-82
2021/03/18 05:50:20;;;;;;;27.80;17.60;;;2.70;78.60;;;1.73;64.25;95132.44;5033765;28;20268;-82
2021/03/18 05:52:49;;;;;;;25.27;16.45;;;2.70;78.70;;;1.79;64.29;95138.88;5017758;28;20690;-83
2021/03/18 05:55:20;;;;;;;29.88;18.30;;;2.70;78.70;;;1.80;64.37;95136.13;5001348;28;20668;-83
2021/03/18 05:57:50;;;;;;;28.25;17.95;;;2.80;78.80;;;1.83;64.23;95127.28;5017457;28;20232;-83
2021/03/18 06:00:19;;;;;;;28.98;18.35;;;2.80;78.90;;;1.87;64.19;95137.25;5017787;28;20193;-83
2021/03/18 06:02:50;;;;;;;27.77;17.58;;;2.80;78.90;;;1.90;64.46;95133.56;5002162;28;20224;-82
2021/03/18 06:05:18;;;;;;;25.55;16.35;;;2.80;78.90;;;1.96;64.13;95140.81;5001481;28;20217;-84
2021/03/18 06:07:48;;;;;;;27.17;16.27;;;2.90;78.90;;;1.98;64.31;95138.91;5017765;28;20216;-83
2021/03/18 06:10:22;;;;;;;25.02;16.08;;;2.90;78.90;;;2.02;63.99;95132.50;5001580;28;20201;-84
2021/03/18 06:12:55;;;;;;;25.45;16.42;;;2.90;78.90;;;2.05;64.36;95139.19;5017790;28;20502;-83
2021/03/18 06:15:23;;;;;;;26.10;15.85;;;3.00;78.90;;;2.09;64.04;95143.16;5017618;28;20643;-84
2021/03/18 06:17:54;;;;;;;25.75;16.17;;;3.00;78.80;;;2.10;64.12;95137.03;5001817;28;20307;-84
2021/03/18 06:20:28;;;;;;;28.27;17.02;;;3.00;78.90;;;2.12;64.35;95134.31;5017518;28;20254;-83
2021/03/18 06:22:56;;;;;;;24.85;15.38;;;3.10;79.00;;;2.15;64.62;95147.78;5000978;28;20200;-82
2021/03/18 06:25:31;;;;;;;27.60;17.27;;;3.10;79.00;;;2.23;64.57;95145.38;5000643;28;20228;-83
2021/03/18 06:28:22;;;;;;;25.83;16.90;;;3.10;79.10;;;2.28;64.52;95150.09;5017218;28;20220;-83
2021/03/18 06:31:04;;;;;;;26.70;15.88;;;3.10;79.20;;;2.32;64.63;95148.06;5016938;28;20231;-82
2021/03/18 06:33:35;;;;;;;28.83;17.73;;;3.20;79.30;;;2.37;64.34;95156.28;5016749;28;20674;-83
2021/03/18 06:36:28;;;;;;;28.77;17.92;;;3.20;79.30;;;2.42;64.55;95148.91;5019677;28;20209;-82
2021/03/18 06:39:15;;;;;;;27.60;16.95;;;3.30;79.30;;;2.47;64.55;95151.91;5008397;28;20198;-82
2021/03/18 06:41:56;;;;;;;28.25;18.02;;;3.30;79.30;;;2.51;64.53;95155.03;5045402;28;20243;-83
2021/03/18 06:44:29;;;;;;;25.65;16.00;;;3.30;79.40;;;2.50;64.64;95154.25;5036642;28;20227;-83
2021/03/18 06:47:10;;;;;;;29.88;17.77;;;3.40;79.50;;;2.52;64.46;95154.09;5048843;28;20216;-83
2021/03/18 06:49:37;;;;;;;26.55;15.90;;;3.40;79.40;;;2.51;64.84;95148.09;5033126;28;20393;-84
2021/03/18 06:52:06;;;;;;;24.92;16.15;;;3.40;79.40;;;2.63;64.83;95146.19;5002166;28;20710;-83
2021/03/18 06:54:38;;;;;;;25.95;16.55;;;3.40;79.50;;;2.70;64.61;95154.22;5036286;28;20212;-83
2021/03/18 06:57:05;;;;;;;23.42;15.27;;;3.50;79.50;;;2.76;64.65;95151.09;5033415;28;20243;-83
2021/03/18 06:59:38;;;;;;;26.40;16.42;;;3.50;79.50;;;2.80;64.61;95155.03;5032395;28;20201;-82
2021/03/18 07:02:13;;;;;;;26.73;16.05;;;3.50;79.50;;;2.85;64.50;95147.66;5052487;28;20235;-83
2021/03/18 07:04:41;;;;;;;25.05;16.00;;;3.60;79.60;;;2.96;64.56;95148.47;5036233;28;20224;-82
2021/03/18 07:07:10;;;;;;;23.90;15.77;;;3.70;79.60;;;3.02;64.21;95147.91;5032119;28;20224;-83
2021/03/18 07:09:41;;;;;;;25.45;16.83;;;3.70;79.50;;;3.04;63.98;95144.22;5036831;28;20200;-82
2021/03/18 07:12:12;;;;;;;23.88;16.35;;;3.80;79.50;;;3.03;63.38;95147.78;5035102;28;20474;-82
2021/03/18 07:14:50;;;;;;;23.92;16.50;;;3.80;79.10;;;3.04;63.61;95148.59;5053937;28;20207;-82
2021/03/18 07:17:37;;;;;;;23.85;15.70;;;3.90;79.00;;;3.07;63.10;95139.72;5018603;28;20223;-82
2021/03/18 07:20:21;;;;;;;25.88;15.40;;;3.90;79.10;;;3.09;63.77;95140.41;5017039;28;20219;-82
2021/03/18 07:22:57;;;;;;;24.05;14.82;;;3.90;79.10;;;3.12;63.58;95140.13;5015245;28;20763;-81
2021/03/18 07:25:29;;;;;;;24.13;15.55;;;4.00;79.00;;;3.15;63.25;95140.66;5031928;28;20227;-83
2021/03/18 07:28:02;;;;;;;23.30;15.85;;;4.00;78.90;;;3.17;63.05;95135.34;5047268;28;20219;-81
2021/03/18 07:30:34;;;;;;;24.45;15.82;;;4.00;78.70;;;3.19;63.26;95134.22;5032012;28;20196;-82
2021/03/18 07:33:04;;;;;;;20.00;14.00;;;4.10;78.80;;;3.26;62.84;95138.84;5020956;28;20220;-82
2021/03/18 07:35:32;;;;;;;24.70;15.70;;;4.10;78.70;;;3.24;62.63;95133.81;5014613;28;20205;-82
2021/03/18 07:38:00;;;;;;;23.67;15.27;;;4.10;79.50;;;3.29;62.83;95136.00;5015188;28;20231;-81
2021/03/18 07:40:31;;;;;;;22.35;14.77;;;4.10;78.60;;;3.28;62.88;95134.34;5018776;28;20721;-81
2021/03/18 07:43:00;;;;;;;25.17;14.88;;;4.20;78.50;;;3.26;62.58;95133.66;5015664;28;20201;-81
2021/03/18 07:45:28;;;;;;;22.88;15.30;;;4.10;78.40;;;3.25;63.23;95132.03;5034213;28;20219;-82
2021/03/18 07:47:57;;;;;;;21.00;14.32;;;4.20;78.40;;;3.24;62.82;95125.25;5030955;28;20197;-80
2021/03/18 07:50:32;;;;;;;23.20;14.98;;;4.20;78.30;;;3.21;62.79;95131.53;5023705;28;20200;-81
2021/03/18 07:53:01;;;;;;;22.15;15.25;;;4.20;78.30;;;3.17;62.99;95128.41;5037269;28;20215;-80
2021/03/18 07:55:32;;;;;;;21.75;14.38;;;4.20;78.30;;;3.22;63.06;95132.31;5059509;28;20279;-81
2021/03/18 07:57:59;;;;;;;23.55;15.80;;;4.10;78.40;;;3.25;63.27;95140.63;5025666;28;20287;-81
2021/03/18 08:00:31;;;;;;;23.65;15.48;;;4.10;78.50;;;3.31;63.15;95127.13;5052637;28;20204;-81
2021/03/18 08:03:19;;;;;;;24.85;15.25;;;4.10;78.60;;;3.43;63.10;95132.13;5030794;28;20474;-82
2021/03/18 08:05:46;;;;;;;22.40;14.73;;;4.20;78.60;;;3.51;62.83;95125.25;5045825;28;20643;-80
2021/03/18 08:08:31;;;;;;;20.13;13.32;;;4.20;78.80;;;3.61;62.69;95132.19;5026501;28;20295;-80
2021/03/18 08:11:10;;;;;;;21.75;13.90;;;4.30;78.70;;;3.60;61.80;95125.34;5020826;28;20597;-80
2021/03/18 08:13:41;;;;;;;21.92;13.98;;;4.40;78.20;;;3.61;61.49;95135.59;5039109;28;20196;-79
2021/03/18 08:16:31;;;;;;;19.55;13.77;;;4.50;78.10;;;3.59;61.10;95132.34;5035067;28;20699;-79
2021/03/18 08:19:02;;;;;;;20.90;13.48;;;4.40;77.60;;;3.60;61.59;95131.38;5025042;28;20216;-81
2021/03/18 08:22:13;;;;;;;19.38;13.95;;;4.40;77.70;;;3.59;60.75;95129.75;5051461;28;20245;-80
2021/03/18 08:24:40;;;;;;;19.00;13.32;;;4.50;77.40;;;3.60;60.48;95121.00;5028565;28;20239;-79
2021/03/18 08:27:07;;;;;;;17.73;12.23;;;4.50;77.20;;;3.63;60.24;95125.88;5012523;28;20312;-78
2021/03/18 08:29:47;;;;;;;18.02;12.43;;;4.50;77.10;;;3.69;60.49;95122.72;5037977;28;20280;-78
2021/03/18 08:32:31;;;;;;;16.05;11.35;;;4.50;77.10;;;3.78;60.21;95113.25;5016726;28;20282;-79
2021/03/18 08:35:06;;;;;;;14.38;11.10;;;4.50;76.90;;;3.85;58.64;95124.69;5001959;28;20196;-78
2021/03/18 08:37:50;;;;;;;15.30;10.88;;;4.60;76.40;;;3.92;58.39;95119.75;5021434;28;20213;-78
2021/03/18 08:40:20;;;;;;;16.27;11.43;;;4.60;76.50;;;4.05;58.43;95121.16;5018456;28;20200;-79
2021/03/18 08:42:53;;;;;;;16.42;10.82;;;4.60;76.50;;;4.19;57.70;95130.22;5018114;28;20286;-79
2021/03/18 08:45:20;;;;;;;11.77;9.13;;;4.70;76.20;;;4.33;56.85;95121.94;5034924;28;20304;-79
2021/03/18 08:47:55;;;;;;;14.15;9.35;;;4.80;75.90;;;4.54;57.69;95124.25;5033848;28;20221;-78
2021/03/18 08:50:25;;;;;;;11.23;8.77;;;4.90;76.00;;;4.75;57.84;95125.72;5049111;28;20231;-79
2021/03/18 08:52:56;;;;;;;9.95;8.20;;;5.00;76.20;;;4.89;57.73;95111.38;5036134;28;21201;-77
2021/03/18 08:55:42;;;;;;;10.70;8.10;;;5.20;76.30;;;5.05;56.86;95126.25;5024537;28;20558;-79
2021/03/18 08:58:10;;;;;;;10.68;7.63;;;5.40;75.70;;;5.01;55.70;95112.75;5043874;28;20212;-80
2021/03/18 09:00:39;;;;;;;12.10;8.52;;;5.50;75.20;;;5.02;56.13;95127.38;5049235;28;20734;-79
2021/03/18 09:03:06;;;;;;;15.57;9.73;;;5.60;74.90;;;4.92;55.21;95117.06;5042796;28;20204;-79
2021/03/18 09:05:34;;;;;;;15.48;10.68;;;5.60;74.40;;;4.79;55.28;95122.66;5029930;28;20853;-78
2021/03/18 09:08:06;;;;;;;14.10;10.52;;;5.60;74.00;;;4.69;55.33;95124.53;5043435;28;20574;-78
2021/03/18 09:10:35;;;;;;;13.15;10.30;;;5.60;73.90;;;4.58;56.54;95125.59;5016621;28;20204;-78
2021/03/18 09:13:13;;;;;;;13.90;10.32;;;5.50;73.90;;;4.50;56.17;95115.09;5048208;28;20197;-78
2021/03/18 09:15:43;;;;;;;14.85;10.38;;;5.50;73.90;;;4.48;56.35;95128.25;5029218;28;20227;-79
2021/03/18 09:18:28;;;;;;;15.43;10.43;;;5.50;74.10;;;4.46;56.82;95121.59;5047673;28;20203;-79
2021/03/18 09:20:57;;;;;;;14.35;10.38;;;5.40;74.00;;;4.41;56.12;95123.81;5043619;28;20220;-78
2021/03/18 09:23:39;;;;;;;12.55;9.23;;;5.40;74.00;;;4.40;56.92;95120.38;5045441;28;20193;-78
2021/03/18 09:26:10;;;;;;;13.23;9.70;;;5.30;75.00;;;4.48;56.34;95112.66;5046980;28;20262;-78
2021/03/18 09:28:50;;;;;;;14.00;9.93;;;5.30;74.00;;;4.57;56.31;95115.34;5048419;28;20196;-78
2021/03/18 09:31:23;;;;;;;12.80;9.63;;;5.40;74.10;;;4.70;56.50;95107.16;5044430;28;20216;-79
2021/03/18 09:33:54;;;;;;;11.93;8.55;;;5.40;74.20;;;4.92;56.96;95108.44;5049953;28;20219;-77
2021/03/18 09:36:26;;;;;;;10.90;7.38;;;5.40;74.90;;;5.13;54.89;95101.13;5014653;28;20266;-79
2021/03/18 09:38:54;;;;;;;8.60;6.97;;;5.50;74.00;;;5.34;55.65;95105.13;5021065;28;20197;-79
2021/03/18 09:41:25;;;;;;;10.05;7.28;;;5.60;74.60;;;5.44;55.33;95089.41;5032543;28;20213;-79
2021/03/18 09:44:22;;;;;;;9.77;7.53;;;5.80;74.40;;;5.60;55.04;95099.09;5018123;28;20196;-80
2021/03/18 09:46:52;;;;;;;9.77;7.47;;;5.90;73.90;;;5.70;53.87;95091.97;5001836;28;20320;-80
2021/03/18 09:49:39;;;;;;;8.75;7.40;;;6.10;73.60;;;5.82;52.85;95096.91;5017330;28;20192;-80
2021/03/18 09:52:22;;;;;;;9.32;6.97;;;6.20;73.20;;;5.92;53.17;95085.38;5017270;28;20227;-80
2021/03/18 09:54:50;;;;;;;10.00;7.40;;;6.20;73.20;;;6.08;53.29;95089.03;5018422;28;20196;-80
2021/03/18 09:57:17;;;;;;;9.93;7.07;;;6.40;73.40;;;6.21;52.41;95088.56;5033358;28;20213;-81
2021/03/18 09:59:52;;;;;;;10.55;8.18;;;6.50;73.70;;;6.28;51.32;95084.34;5031953;28;20246;-81
2021/03/18 10:02:28;;;;;;;10.60;7.68;;;6.60;72.10;;;6.24;51.51;95070.81;5031302;28;20216;-81
2021/03/18 10:04:55;;;;;;;9.40;7.22;;;6.70;72.10;;;6.26;50.69;95081.06;5047945;28;20295;-81
2021/03/18 10:07:29;;;;;;;9.25;7.20;;;6.80;71.50;;;6.23;49.90;95084.81;5031878;28;20220;-81
2021/03/18 10:09:56;;;;;;;7.95;6.20;;;6.80;70.60;;;6.16;49.23;95083.03;5015292;28;20199;-81
2021/03/18 10:12:26;;;;;;;8.00;6.38;;;6.80;70.30;;;6.15;49.49;95076.19;5018642;28;20212;-81
2021/03/18 10:15:07;;;;;;;9.60;6.90;;;6.80;70.30;;;6.18;50.73;95068.88;5035289;28;20211;-81
2021/03/18 10:17:37;;;;;;;7.78;5.80;;;6.80;70.70;;;6.35;51.09;95074.09;5033107;28;20226;-80
2021/03/18 10:20:18;;;;;;;7.18;5.75;;;6.90;71.30;;;6.49;50.34;95076.03;5034652;28;20183;-80
2021/03/18 10:23:06;;;;;;;8.38;5.93;;;6.90;70.70;;;6.54;50.44;95060.75;5050950;28;20314;-80
2021/03/18 10:25:36;;;;;;;9.95;7.82;;;6.90;70.70;;;6.53;49.58;95069.56;5049567;28;20690;-80
2021/03/18 10:28:15;;;;;;;11.15;8.00;;;7.00;70.40;;;6.33;49.39;95069.03;5017093;28;20254;-80
2021/03/18 10:30:46;;;;;;;10.82;8.02;;;7.00;69.80;;;6.19;50.19;95067.91;5032408;28;20192;-82
2021/03/18 10:33:18;;;;;;;11.23;8.27;;;7.00;69.80;;;6.06;50.62;95070.16;5047041;28;20214;-81
2021/03/18 10:36:02;;;;;;;11.88;8.02;;;6.90;69.90;;;5.95;51.33;95070.44;5034503;28;20211;-80
2021/03/18 10:38:37;;;;;;;12.77;7.82;;;6.80;70.30;;;5.86;51.43;95073.00;5050946;28;20192;-81
2021/03/18 10:41:08;;;;;;;11.32;8.35;;;6.80;70.20;;;5.75;51.33;95058.50;5049857;28;20221;-81
2021/03/18 10:43:41;;;;;;;11.18;8.25;;;6.70;69.90;;;5.70;51.77;95065.13;5050006;28;20208;-82